sensor_id;sensor_type;location;lat;lon;timestamp;temperature;humidity
33095;DHT22;19459;53.044;8.910;2023-11-19T00:01:06;6.90;99.90
33095;DHT22;19459;53.044;8.910;2023-11-19T00:03:32;7.00;99.90
33095;DHT22;19459;53.044;8.910;2023-11-19T00:05:59;7.00;99.90
33095;DHT22;19459;53.044;8.910;2023-11-19T00:08:25;7.00;99.90
33095;DHT22;19459;53.044;8.910;2023-11-19T00:10:50;7.00;99.90
33095;DHT22;19459;53.044;8.910;2023-11-19T00:13:16;7.00;99.90
33095;DHT22;19459;53.044;8.910;2023-11-19T00:15:42;7.00;99.90
33095;DHT22;19459;53.044;8.910;2023-11-19T00:18:08;7.00;99.90
33095;DHT22;19459;53.044;8.910;2023-11-19T00:20:35;7.00;99.90
33095;DHT22;19459;53.044;8.910;2023-11-19T00:23:00;7.10;99.90
33095;DHT22;19459;53.044;8.910;2023-11-19T00:25:27;7.00;99.90
33095;DHT22;19459;53.044;8.910;2023-11-19T00:27:53;7.10;99.90
33095;DHT22;19459;53.044;8.910;2023-11-19T00:30:21;7.10;99.90
33095;DHT22;19459;53.044;8.910;2023-11-19T00:32:47;7.10;99.90
33095;DHT22;19459;53.044;8.910;2023-11-19T00:35:13;7.10;99.90
33095;DHT22;19459;53.044;8.910;2023-11-19T00:37:39;7.10;99.90
33095;DHT22;19459;53.044;8.910;2023-11-19T00:40:06;7.10;99.90
33095;DHT22;19459;53.044;8.910;2023-11-19T00:42:33;7.10;99.90
33095;DHT22;19459;53.044;8.910;2023-11-19T00:44:59;7.20;99.90
33095;DHT22;19459;53.044;8.910;2023-11-19T00:47:26;7.20;99.90
33095;DHT22;19459;53.044;8.910;2023-11-19T00:49:52;7.20;99.90
33095;DHT22;19459;53.044;8.910;2023-11-19T00:52:18;7.20;99.90
33095;DHT22;19459;53.044;8.910;2023-11-19T00:54:44;7.20;99.90
33095;DHT22;19459;53.044;8.910;2023-11-19T00:57:09;7.20;99.90
33095;DHT22;19459;53.044;8.910;2023-11-19T00:59:35;7.20;99.90
33095;DHT22;19459;53.044;8.910;2023-11-19T01:02:01;7.20;99.90
33095;DHT22;19459;53.044;8.910;2023-11-19T01:04:35;7.30;99.90
33095;DHT22;19459;53.044;8.910;2023-11-19T01:07:04;7.20;99.90
33095;DHT22;19459;53.044;8.910;2023-11-19T01:09:32;7.30;99.90
33095;DHT22;19459;53.044;8.910;2023-11-19T01:12:00;7.30;99.90
33095;DHT22;19459;53.044;8.910;2023-11-19T01:14:27;7.30;99.90
33095;DHT22;19459;53.044;8.910;2023-11-19T01:16:54;7.30;99.90
33095;DHT22;19459;53.044;8.910;2023-11-19T01:19:21;7.30;99.90
33095;DHT22;19459;53.044;8.910;2023-11-19T01:21:48;7.40;99.90
33095;DHT22;19459;53.044;8.910;2023-11-19T01:24:14;7.40;99.90
33095;DHT22;19459;53.044;8.910;2023-11-19T01:26:41;7.40;99.90
33095;DHT22;19459;53.044;8.910;2023-11-19T01:29:16;7.40;99.90
33095;DHT22;19459;53.044;8.910;2023-11-19T01:31:42;7.40;99.90
33095;DHT22;19459;53.044;8.910;2023-11-19T01:34:10;7.50;99.90
33095;DHT22;19459;53.044;8.910;2023-11-19T01:36:36;7.50;99.90
33095;DHT22;19459;53.044;8.910;2023-11-19T01:39:02;7.50;99.90
33095;DHT22;19459;53.044;8.910;2023-11-19T01:41:36;7.60;99.90
33095;DHT22;19459;53.044;8.910;2023-11-19T01:44:06;7.60;99.90
33095;DHT22;19459;53.044;8.910;2023-11-19T01:46:32;7.70;99.90
33095;DHT22;19459;53.044;8.910;2023-11-19T01:48:59;7.70;99.90
33095;DHT22;19459;53.044;8.910;2023-11-19T01:51:25;7.80;99.90
33095;DHT22;19459;53.044;8.910;2023-11-19T01:53:52;7.80;99.90
33095;DHT22;19459;53.044;8.910;2023-11-19T01:56:18;7.80;99.90
33095;DHT22;19459;53.044;8.910;2023-11-19T01:58:46;7.90;99.90
33095;DHT22;19459;53.044;8.910;2023-11-19T02:01:13;7.90;99.90
33095;DHT22;19459;53.044;8.910;2023-11-19T02:03:40;8.00;99.90
33095;DHT22;19459;53.044;8.910;2023-11-19T02:06:06;8.00;99.90
33095;DHT22;19459;53.044;8.910;2023-11-19T02:08:32;8.00;99.90
33095;DHT22;19459;53.044;8.910;2023-11-19T02:10:58;8.10;99.90
33095;DHT22;19459;53.044;8.910;2023-11-19T02:13:25;8.20;99.90
33095;DHT22;19459;53.044;8.910;2023-11-19T02:15:51;8.30;99.90
33095;DHT22;19459;53.044;8.910;2023-11-19T02:18:22;8.50;99.90
33095;DHT22;19459;53.044;8.910;2023-11-19T02:20:50;8.60;99.90
33095;DHT22;19459;53.044;8.910;2023-11-19T02:23:17;8.60;99.90
33095;DHT22;19459;53.044;8.910;2023-11-19T02:25:47;8.80;99.90
33095;DHT22;19459;53.044;8.910;2023-11-19T02:28:36;8.80;99.90
33095;DHT22;19459;53.044;8.910;2023-11-19T02:31:02;8.90;99.90
33095;DHT22;19459;53.044;8.910;2023-11-19T02:33:30;8.90;99.90
33095;DHT22;19459;53.044;8.910;2023-11-19T02:35:56;9.00;99.90
33095;DHT22;19459;53.044;8.910;2023-11-19T02:38:22;9.20;99.90
33095;DHT22;19459;53.044;8.910;2023-11-19T02:40:48;9.50;99.90
33095;DHT22;19459;53.044;8.910;2023-11-19T02:43:15;9.50;99.90
33095;DHT22;19459;53.044;8.910;2023-11-19T02:45:40;9.60;99.90
33095;DHT22;19459;53.044;8.910;2023-11-19T02:48:07;9.70;99.90
33095;DHT22;19459;53.044;8.910;2023-11-19T02:50:34;9.80;99.90
33095;DHT22;19459;53.044;8.910;2023-11-19T02:52:59;9.80;99.90
33095;DHT22;19459;53.044;8.910;2023-11-19T02:55:26;10.00;99.90
33095;DHT22;19459;53.044;8.910;2023-11-19T02:57:56;10.10;99.90
33095;DHT22;19459;53.044;8.910;2023-11-19T03:00:24;10.10;99.90
33095;DHT22;19459;53.044;8.910;2023-11-19T03:02:53;10.10;99.90
33095;DHT22;19459;53.044;8.910;2023-11-19T03:05:26;10.10;99.90
33095;DHT22;19459;53.044;8.910;2023-11-19T03:07:55;10.20;99.90
33095;DHT22;19459;53.044;8.910;2023-11-19T03:10:22;10.30;99.90
33095;DHT22;19459;53.044;8.910;2023-11-19T03:12:53;10.30;99.90
33095;DHT22;19459;53.044;8.910;2023-11-19T03:15:22;10.30;99.90
33095;DHT22;19459;53.044;8.910;2023-11-19T03:17:48;10.30;99.90
33095;DHT22;19459;53.044;8.910;2023-11-19T03:20:13;10.40;99.90
33095;DHT22;19459;53.044;8.910;2023-11-19T03:22:42;10.50;99.90
33095;DHT22;19459;53.044;8.910;2023-11-19T03:25:09;10.60;99.90
33095;DHT22;19459;53.044;8.910;2023-11-19T03:27:36;10.60;99.90
33095;DHT22;19459;53.044;8.910;2023-11-19T03:30:07;10.70;99.90
33095;DHT22;19459;53.044;8.910;2023-11-19T03:32:35;10.70;99.90
33095;DHT22;19459;53.044;8.910;2023-11-19T03:35:01;10.70;99.90
33095;DHT22;19459;53.044;8.910;2023-11-19T03:37:29;10.70;99.90
33095;DHT22;19459;53.044;8.910;2023-11-19T03:39:57;10.70;99.90
33095;DHT22;19459;53.044;8.910;2023-11-19T03:42:29;10.80;99.90
33095;DHT22;19459;53.044;8.910;2023-11-19T03:44:57;10.80;99.90
33095;DHT22;19459;53.044;8.910;2023-11-19T03:47:23;10.80;99.90
33095;DHT22;19459;53.044;8.910;2023-11-19T03:49:50;10.90;99.90
33095;DHT22;19459;53.044;8.910;2023-11-19T03:52:17;10.90;99.90
33095;DHT22;19459;53.044;8.910;2023-11-19T03:54:43;10.90;99.90
33095;DHT22;19459;53.044;8.910;2023-11-19T03:57:09;10.90;99.90
33095;DHT22;19459;53.044;8.910;2023-11-19T03:59:36;11.00;99.90
33095;DHT22;19459;53.044;8.910;2023-11-19T04:02:02;10.90;99.90
33095;DHT22;19459;53.044;8.910;2023-11-19T04:04:28;11.00;99.90
33095;DHT22;19459;53.044;8.910;2023-11-19T04:06:55;11.00;99.90
33095;DHT22;19459;53.044;8.910;2023-11-19T04:09:21;11.00;99.90
33095;DHT22;19459;53.044;8.910;2023-11-19T04:11:47;11.00;99.90
33095;DHT22;19459;53.044;8.910;2023-11-19T04:14:14;11.00;99.90
33095;DHT22;19459;53.044;8.910;2023-11-19T04:16:40;11.00;99.90
33095;DHT22;19459;53.044;8.910;2023-11-19T04:19:06;11.00;99.90
33095;DHT22;19459;53.044;8.910;2023-11-19T04:21:32;11.10;99.90
33095;DHT22;19459;53.044;8.910;2023-11-19T04:23:59;11.00;99.90
33095;DHT22;19459;53.044;8.910;2023-11-19T04:26:24;11.00;99.90
33095;DHT22;19459;53.044;8.910;2023-11-19T04:28:50;11.10;99.90
33095;DHT22;19459;53.044;8.910;2023-11-19T04:31:16;11.10;99.90
33095;DHT22;19459;53.044;8.910;2023-11-19T04:33:42;11.10;99.90
33095;DHT22;19459;53.044;8.910;2023-11-19T04:36:10;11.10;99.90
33095;DHT22;19459;53.044;8.910;2023-11-19T04:38:37;11.10;99.90
33095;DHT22;19459;53.044;8.910;2023-11-19T04:41:04;11.20;99.90
33095;DHT22;19459;53.044;8.910;2023-11-19T04:43:32;11.20;99.90
33095;DHT22;19459;53.044;8.910;2023-11-19T04:45:58;11.10;99.90
33095;DHT22;19459;53.044;8.910;2023-11-19T04:48:24;11.20;99.90
33095;DHT22;19459;53.044;8.910;2023-11-19T04:50:50;11.20;99.90
33095;DHT22;19459;53.044;8.910;2023-11-19T04:53:18;11.20;99.90
33095;DHT22;19459;53.044;8.910;2023-11-19T04:55:43;11.30;99.90
33095;DHT22;19459;53.044;8.910;2023-11-19T04:58:10;11.30;99.90
33095;DHT22;19459;53.044;8.910;2023-11-19T05:00:35;11.30;99.90
33095;DHT22;19459;53.044;8.910;2023-11-19T05:03:01;11.30;99.90
33095;DHT22;19459;53.044;8.910;2023-11-19T05:05:28;11.30;99.90
33095;DHT22;19459;53.044;8.910;2023-11-19T05:07:54;11.30;99.90
33095;DHT22;19459;53.044;8.910;2023-11-19T05:10:20;11.40;99.90
33095;DHT22;19459;53.044;8.910;2023-11-19T05:12:46;11.40;99.90
33095;DHT22;19459;53.044;8.910;2023-11-19T05:15:12;11.40;99.90
33095;DHT22;19459;53.044;8.910;2023-11-19T05:17:38;11.40;99.90
33095;DHT22;19459;53.044;8.910;2023-11-19T05:20:05;11.40;99.90
33095;DHT22;19459;53.044;8.910;2023-11-19T05:22:39;11.40;99.90
33095;DHT22;19459;53.044;8.910;2023-11-19T05:25:06;11.40;99.90
33095;DHT22;19459;53.044;8.910;2023-11-19T05:27:32;11.40;99.90
33095;DHT22;19459;53.044;8.910;2023-11-19T05:29:58;11.40;99.90
33095;DHT22;19459;53.044;8.910;2023-11-19T05:32:24;11.40;99.90
33095;DHT22;19459;53.044;8.910;2023-11-19T05:34:49;11.40;99.90
33095;DHT22;19459;53.044;8.910;2023-11-19T05:37:15;11.50;99.90
33095;DHT22;19459;53.044;8.910;2023-11-19T05:39:41;11.50;99.90
33095;DHT22;19459;53.044;8.910;2023-11-19T05:42:07;11.50;99.90
33095;DHT22;19459;53.044;8.910;2023-11-19T05:44:33;11.50;99.90
33095;DHT22;19459;53.044;8.910;2023-11-19T05:46:59;11.50;99.90
33095;DHT22;19459;53.044;8.910;2023-11-19T05:49:24;11.50;99.90
33095;DHT22;19459;53.044;8.910;2023-11-19T05:51:50;11.60;99.90
33095;DHT22;19459;53.044;8.910;2023-11-19T05:54:16;11.60;99.90
33095;DHT22;19459;53.044;8.910;2023-11-19T05:56:50;11.60;99.90
33095;DHT22;19459;53.044;8.910;2023-11-19T05:59:19;11.50;99.90
33095;DHT22;19459;53.044;8.910;2023-11-19T06:01:45;11.60;99.90
33095;DHT22;19459;53.044;8.910;2023-11-19T06:04:12;11.60;99.90
33095;DHT22;19459;53.044;8.910;2023-11-19T06:06:38;11.50;99.90
33095;DHT22;19459;53.044;8.910;2023-11-19T06:09:05;11.60;99.90
33095;DHT22;19459;53.044;8.910;2023-11-19T06:11:33;11.60;99.90
33095;DHT22;19459;53.044;8.910;2023-11-19T06:13:59;11.60;99.90
33095;DHT22;19459;53.044;8.910;2023-11-19T06:16:25;11.60;99.90
33095;DHT22;19459;53.044;8.910;2023-11-19T06:18:51;11.60;99.90
33095;DHT22;19459;53.044;8.910;2023-11-19T06:21:16;11.60;99.90
33095;DHT22;19459;53.044;8.910;2023-11-19T06:23:42;11.60;99.90
33095;DHT22;19459;53.044;8.910;2023-11-19T06:26:08;11.70;99.90
33095;DHT22;19459;53.044;8.910;2023-11-19T06:28:34;11.80;99.90
33095;DHT22;19459;53.044;8.910;2023-11-19T06:31:00;11.70;99.90
33095;DHT22;19459;53.044;8.910;2023-11-19T06:33:26;11.80;99.90
33095;DHT22;19459;53.044;8.910;2023-11-19T06:35:52;11.80;99.90
33095;DHT22;19459;53.044;8.910;2023-11-19T06:38:20;11.90;99.90
33095;DHT22;19459;53.044;8.910;2023-11-19T06:40:45;11.90;99.90
33095;DHT22;19459;53.044;8.910;2023-11-19T06:43:11;11.90;99.90
33095;DHT22;19459;53.044;8.910;2023-11-19T06:45:37;11.90;99.90
33095;DHT22;19459;53.044;8.910;2023-11-19T06:48:03;11.90;99.90
33095;DHT22;19459;53.044;8.910;2023-11-19T06:50:33;11.90;99.90
33095;DHT22;19459;53.044;8.910;2023-11-19T06:52:59;11.90;99.90
33095;DHT22;19459;53.044;8.910;2023-11-19T06:55:25;11.90;99.90
33095;DHT22;19459;53.044;8.910;2023-11-19T06:57:52;11.80;99.90
33095;DHT22;19459;53.044;8.910;2023-11-19T07:00:17;11.80;99.90
33095;DHT22;19459;53.044;8.910;2023-11-19T07:02:44;11.80;99.90
33095;DHT22;19459;53.044;8.910;2023-11-19T07:05:10;11.80;99.90
33095;DHT22;19459;53.044;8.910;2023-11-19T07:07:37;11.80;99.90
33095;DHT22;19459;53.044;8.910;2023-11-19T07:10:03;11.80;99.90
33095;DHT22;19459;53.044;8.910;2023-11-19T07:12:31;11.80;99.90
33095;DHT22;19459;53.044;8.910;2023-11-19T07:14:57;11.80;99.90
33095;DHT22;19459;53.044;8.910;2023-11-19T07:17:22;11.80;99.90
33095;DHT22;19459;53.044;8.910;2023-11-19T07:19:50;11.80;99.90
33095;DHT22;19459;53.044;8.910;2023-11-19T07:22:16;11.80;99.90
33095;DHT22;19459;53.044;8.910;2023-11-19T07:24:42;11.80;99.90
33095;DHT22;19459;53.044;8.910;2023-11-19T07:27:08;11.80;99.90
33095;DHT22;19459;53.044;8.910;2023-11-19T07:29:35;11.90;99.90
33095;DHT22;19459;53.044;8.910;2023-11-19T07:32:01;11.90;99.90
33095;DHT22;19459;53.044;8.910;2023-11-19T07:34:30;11.80;99.90
33095;DHT22;19459;53.044;8.910;2023-11-19T07:36:56;11.80;99.90
33095;DHT22;19459;53.044;8.910;2023-11-19T07:39:27;11.80;99.90
33095;DHT22;19459;53.044;8.910;2023-11-19T07:41:54;11.80;99.90
33095;DHT22;19459;53.044;8.910;2023-11-19T07:44:20;11.80;99.90
33095;DHT22;19459;53.044;8.910;2023-11-19T07:46:47;11.70;99.90
33095;DHT22;19459;53.044;8.910;2023-11-19T07:49:13;11.70;99.90
33095;DHT22;19459;53.044;8.910;2023-11-19T07:51:40;11.70;99.90
33095;DHT22;19459;53.044;8.910;2023-11-19T07:54:06;11.60;99.90
33095;DHT22;19459;53.044;8.910;2023-11-19T07:56:33;11.60;99.90
33095;DHT22;19459;53.044;8.910;2023-11-19T07:59:01;11.60;99.90
33095;DHT22;19459;53.044;8.910;2023-11-19T08:01:30;11.60;99.90
33095;DHT22;19459;53.044;8.910;2023-11-19T08:03:55;11.60;99.90
33095;DHT22;19459;53.044;8.910;2023-11-19T08:06:21;11.60;99.90
33095;DHT22;19459;53.044;8.910;2023-11-19T08:08:47;11.60;99.90
33095;DHT22;19459;53.044;8.910;2023-11-19T08:11:13;11.60;99.90
33095;DHT22;19459;53.044;8.910;2023-11-19T08:13:40;11.50;99.90
33095;DHT22;19459;53.044;8.910;2023-11-19T08:16:06;11.60;99.90
33095;DHT22;19459;53.044;8.910;2023-11-19T08:18:32;11.70;99.90
33095;DHT22;19459;53.044;8.910;2023-11-19T08:20:58;11.70;99.90
33095;DHT22;19459;53.044;8.910;2023-11-19T08:23:26;11.70;99.90
33095;DHT22;19459;53.044;8.910;2023-11-19T08:25:54;11.70;99.90
33095;DHT22;19459;53.044;8.910;2023-11-19T08:28:19;11.70;99.90
33095;DHT22;19459;53.044;8.910;2023-11-19T08:30:45;11.70;99.90
33095;DHT22;19459;53.044;8.910;2023-11-19T08:33:11;11.70;99.90
33095;DHT22;19459;53.044;8.910;2023-11-19T08:35:37;11.70;99.90
33095;DHT22;19459;53.044;8.910;2023-11-19T08:38:03;11.70;99.90
33095;DHT22;19459;53.044;8.910;2023-11-19T08:40:28;11.70;99.90
33095;DHT22;19459;53.044;8.910;2023-11-19T08:42:57;11.70;99.90
33095;DHT22;19459;53.044;8.910;2023-11-19T08:45:23;11.70;99.90
33095;DHT22;19459;53.044;8.910;2023-11-19T08:47:49;11.70;99.90
33095;DHT22;19459;53.044;8.910;2023-11-19T08:50:14;11.70;99.90
33095;DHT22;19459;53.044;8.910;2023-11-19T08:52:40;11.70;99.90
33095;DHT22;19459;53.044;8.910;2023-11-19T08:55:06;11.70;99.90
33095;DHT22;19459;53.044;8.910;2023-11-19T08:57:32;11.80;99.90
33095;DHT22;19459;53.044;8.910;2023-11-19T08:59:58;11.90;99.90
33095;DHT22;19459;53.044;8.910;2023-11-19T09:02:24;12.00;99.90
33095;DHT22;19459;53.044;8.910;2023-11-19T09:04:50;12.10;99.90
33095;DHT22;19459;53.044;8.910;2023-11-19T09:07:16;12.20;99.90
33095;DHT22;19459;53.044;8.910;2023-11-19T09:09:42;12.30;99.90
33095;DHT22;19459;53.044;8.910;2023-11-19T09:12:08;12.20;99.90
33095;DHT22;19459;53.044;8.910;2023-11-19T09:14:34;12.20;99.90
33095;DHT22;19459;53.044;8.910;2023-11-19T09:17:00;12.30;99.90
33095;DHT22;19459;53.044;8.910;2023-11-19T09:19:26;12.50;99.90
33095;DHT22;19459;53.044;8.910;2023-11-19T09:21:52;12.40;99.90
33095;DHT22;19459;53.044;8.910;2023-11-19T09:24:18;12.50;99.90
33095;DHT22;19459;53.044;8.910;2023-11-19T09:26:44;12.50;99.90
33095;DHT22;19459;53.044;8.910;2023-11-19T09:29:10;12.40;99.90
33095;DHT22;19459;53.044;8.910;2023-11-19T09:31:38;12.40;99.90
33095;DHT22;19459;53.044;8.910;2023-11-19T09:34:04;12.30;99.90
33095;DHT22;19459;53.044;8.910;2023-11-19T09:36:30;12.30;99.90
33095;DHT22;19459;53.044;8.910;2023-11-19T09:38:56;12.20;99.90
33095;DHT22;19459;53.044;8.910;2023-11-19T09:41:23;12.20;99.90
33095;DHT22;19459;53.044;8.910;2023-11-19T09:43:50;12.10;99.90
33095;DHT22;19459;53.044;8.910;2023-11-19T09:46:16;12.00;99.90
33095;DHT22;19459;53.044;8.910;2023-11-19T09:48:43;12.10;99.90
33095;DHT22;19459;53.044;8.910;2023-11-19T09:51:10;11.90;99.90
33095;DHT22;19459;53.044;8.910;2023-11-19T09:53:37;11.90;99.90
33095;DHT22;19459;53.044;8.910;2023-11-19T09:56:04;11.90;99.90
33095;DHT22;19459;53.044;8.910;2023-11-19T09:58:31;11.80;99.90
33095;DHT22;19459;53.044;8.910;2023-11-19T10:00:58;11.80;99.90
33095;DHT22;19459;53.044;8.910;2023-11-19T10:03:27;11.80;99.90
33095;DHT22;19459;53.044;8.910;2023-11-19T10:05:54;11.80;99.90
33095;DHT22;19459;53.044;8.910;2023-11-19T10:08:21;11.80;99.90
33095;DHT22;19459;53.044;8.910;2023-11-19T10:10:47;11.80;99.90
33095;DHT22;19459;53.044;8.910;2023-11-19T10:13:13;11.80;99.90
33095;DHT22;19459;53.044;8.910;2023-11-19T10:15:40;11.80;99.90
33095;DHT22;19459;53.044;8.910;2023-11-19T10:18:07;11.80;99.90
33095;DHT22;19459;53.044;8.910;2023-11-19T10:20:36;11.80;99.90
33095;DHT22;19459;53.044;8.910;2023-11-19T10:23:02;11.80;99.90
33095;DHT22;19459;53.044;8.910;2023-11-19T10:25:29;11.80;99.90
33095;DHT22;19459;53.044;8.910;2023-11-19T10:27:56;11.70;99.90
33095;DHT22;19459;53.044;8.910;2023-11-19T10:30:23;11.70;99.90
33095;DHT22;19459;53.044;8.910;2023-11-19T10:35:36;11.80;99.90
33095;DHT22;19459;53.044;8.910;2023-11-19T10:38:18;11.80;99.90
33095;DHT22;19459;53.044;8.910;2023-11-19T10:40:44;11.90;99.90
33095;DHT22;19459;53.044;8.910;2023-11-19T10:43:10;12.00;99.90
33095;DHT22;19459;53.044;8.910;2023-11-19T10:45:37;12.20;99.90
33095;DHT22;19459;53.044;8.910;2023-11-19T10:48:04;12.30;99.90
33095;DHT22;19459;53.044;8.910;2023-11-19T10:50:34;12.20;99.90
33095;DHT22;19459;53.044;8.910;2023-11-19T10:53:02;12.10;99.90
33095;DHT22;19459;53.044;8.910;2023-11-19T10:55:30;12.10;99.90
33095;DHT22;19459;53.044;8.910;2023-11-19T10:58:08;12.10;99.90
33095;DHT22;19459;53.044;8.910;2023-11-19T11:00:55;12.10;99.90
33095;DHT22;19459;53.044;8.910;2023-11-19T11:03:30;12.00;99.90
33095;DHT22;19459;53.044;8.910;2023-11-19T11:06:03;12.00;99.90
33095;DHT22;19459;53.044;8.910;2023-11-19T11:08:30;12.00;99.90
33095;DHT22;19459;53.044;8.910;2023-11-19T11:10:56;12.10;99.90
33095;DHT22;19459;53.044;8.910;2023-11-19T11:13:26;12.10;99.90
33095;DHT22;19459;53.044;8.910;2023-11-19T11:15:56;12.10;99.90
33095;DHT22;19459;53.044;8.910;2023-11-19T11:18:26;12.00;99.90
33095;DHT22;19459;53.044;8.910;2023-11-19T11:21:05;12.00;99.90
33095;DHT22;19459;53.044;8.910;2023-11-19T11:38:44;12.90;99.90
33095;DHT22;19459;53.044;8.910;2023-11-19T11:41:24;13.00;99.90
33095;DHT22;19459;53.044;8.910;2023-11-19T11:43:52;12.90;99.90
33095;DHT22;19459;53.044;8.910;2023-11-19T11:49:08;12.60;99.90
33095;DHT22;19459;53.044;8.910;2023-11-19T11:54:31;12.60;99.90
33095;DHT22;19459;53.044;8.910;2023-11-19T11:57:16;12.70;99.90
33095;DHT22;19459;53.044;8.910;2023-11-19T11:59:47;12.60;99.90
33095;DHT22;19459;53.044;8.910;2023-11-19T12:02:21;12.50;99.90
33095;DHT22;19459;53.044;8.910;2023-11-19T12:04:48;12.50;99.90
33095;DHT22;19459;53.044;8.910;2023-11-19T12:07:22;12.40;99.90
33095;DHT22;19459;53.044;8.910;2023-11-19T12:09:53;12.40;99.90
33095;DHT22;19459;53.044;8.910;2023-11-19T12:12:32;12.40;99.90
33095;DHT22;19459;53.044;8.910;2023-11-19T12:17:51;12.30;99.90
33095;DHT22;19459;53.044;8.910;2023-11-19T12:20:18;12.30;99.90
33095;DHT22;19459;53.044;8.910;2023-11-19T12:22:46;12.30;99.90
33095;DHT22;19459;53.044;8.910;2023-11-19T12:25:15;12.30;99.90
33095;DHT22;19459;53.044;8.910;2023-11-19T12:27:51;12.30;99.90
33095;DHT22;19459;53.044;8.910;2023-11-19T12:32:48;12.20;99.90
33095;DHT22;19459;53.044;8.910;2023-11-19T12:35:14;12.20;99.90
33095;DHT22;19459;53.044;8.910;2023-11-19T12:40:18;12.10;99.90
33095;DHT22;19459;53.044;8.910;2023-11-19T12:42:46;12.10;99.90
33095;DHT22;19459;53.044;8.910;2023-11-19T12:45:12;12.10;99.90
33095;DHT22;19459;53.044;8.910;2023-11-19T12:47:44;12.10;99.90
33095;DHT22;19459;53.044;8.910;2023-11-19T12:50:12;12.00;99.90
33095;DHT22;19459;53.044;8.910;2023-11-19T12:52:40;12.00;99.90
33095;DHT22;19459;53.044;8.910;2023-11-19T12:55:27;11.90;99.90
33095;DHT22;19459;53.044;8.910;2023-11-19T12:57:54;11.80;99.90
33095;DHT22;19459;53.044;8.910;2023-11-19T13:00:25;11.60;99.90
33095;DHT22;19459;53.044;8.910;2023-11-19T13:02:54;11.60;99.90
33095;DHT22;19459;53.044;8.910;2023-11-19T13:05:33;11.50;99.90
33095;DHT22;19459;53.044;8.910;2023-11-19T13:08:08;11.40;99.90
33095;DHT22;19459;53.044;8.910;2023-11-19T13:10:55;11.20;99.90
33095;DHT22;19459;53.044;8.910;2023-11-19T13:13:20;11.20;99.90
33095;DHT22;19459;53.044;8.910;2023-11-19T13:15:46;11.10;99.90
33095;DHT22;19459;53.044;8.910;2023-11-19T13:18:12;11.10;99.90
33095;DHT22;19459;53.044;8.910;2023-11-19T13:20:39;11.10;99.90
33095;DHT22;19459;53.044;8.910;2023-11-19T13:23:06;11.10;99.90
33095;DHT22;19459;53.044;8.910;2023-11-19T13:25:35;11.00;99.90
33095;DHT22;19459;53.044;8.910;2023-11-19T13:28:01;11.00;99.90
33095;DHT22;19459;53.044;8.910;2023-11-19T13:30:27;11.00;99.90
33095;DHT22;19459;53.044;8.910;2023-11-19T13:32:55;10.90;99.90
33095;DHT22;19459;53.044;8.910;2023-11-19T13:35:21;10.90;99.90
33095;DHT22;19459;53.044;8.910;2023-11-19T13:37:50;10.90;99.90
33095;DHT22;19459;53.044;8.910;2023-11-19T13:40:17;10.80;99.90
33095;DHT22;19459;53.044;8.910;2023-11-19T13:42:43;10.80;99.90
33095;DHT22;19459;53.044;8.910;2023-11-19T13:45:12;10.80;99.90
33095;DHT22;19459;53.044;8.910;2023-11-19T13:47:42;10.90;99.90
33095;DHT22;19459;53.044;8.910;2023-11-19T13:50:10;10.80;99.90
33095;DHT22;19459;53.044;8.910;2023-11-19T13:52:42;10.80;99.90
33095;DHT22;19459;53.044;8.910;2023-11-19T13:55:10;10.80;99.90
33095;DHT22;19459;53.044;8.910;2023-11-19T13:57:38;10.80;99.90
33095;DHT22;19459;53.044;8.910;2023-11-19T14:00:06;10.90;99.90
33095;DHT22;19459;53.044;8.910;2023-11-19T14:02:42;11.00;99.90
33095;DHT22;19459;53.044;8.910;2023-11-19T14:05:11;11.00;99.90
33095;DHT22;19459;53.044;8.910;2023-11-19T14:07:38;11.10;99.90
33095;DHT22;19459;53.044;8.910;2023-11-19T14:10:05;11.10;99.90
33095;DHT22;19459;53.044;8.910;2023-11-19T14:12:34;11.10;99.90
33095;DHT22;19459;53.044;8.910;2023-11-19T14:15:04;11.20;99.90
33095;DHT22;19459;53.044;8.910;2023-11-19T14:17:40;11.20;99.90
33095;DHT22;19459;53.044;8.910;2023-11-19T14:20:06;11.10;99.90
33095;DHT22;19459;53.044;8.910;2023-11-19T14:22:42;11.20;99.90
33095;DHT22;19459;53.044;8.910;2023-11-19T14:25:10;11.20;99.90
33095;DHT22;19459;53.044;8.910;2023-11-19T14:27:37;11.20;99.90
33095;DHT22;19459;53.044;8.910;2023-11-19T14:30:08;11.20;99.90
33095;DHT22;19459;53.044;8.910;2023-11-19T14:32:37;11.30;99.90
33095;DHT22;19459;53.044;8.910;2023-11-19T14:35:07;11.30;99.90
33095;DHT22;19459;53.044;8.910;2023-11-19T14:37:35;11.30;99.90
33095;DHT22;19459;53.044;8.910;2023-11-19T14:40:02;11.30;99.90
33095;DHT22;19459;53.044;8.910;2023-11-19T14:42:32;11.30;99.90
33095;DHT22;19459;53.044;8.910;2023-11-19T14:44:58;11.20;99.90
33095;DHT22;19459;53.044;8.910;2023-11-19T14:47:24;11.20;99.90
33095;DHT22;19459;53.044;8.910;2023-11-19T14:49:50;11.10;99.90
33095;DHT22;19459;53.044;8.910;2023-11-19T14:52:16;11.10;99.90
33095;DHT22;19459;53.044;8.910;2023-11-19T14:54:42;11.10;99.90
33095;DHT22;19459;53.044;8.910;2023-11-19T14:57:08;11.00;99.90
33095;DHT22;19459;53.044;8.910;2023-11-19T14:59:35;11.10;99.90
33095;DHT22;19459;53.044;8.910;2023-11-19T15:02:01;11.00;99.90
33095;DHT22;19459;53.044;8.910;2023-11-19T15:04:28;11.00;99.90
33095;DHT22;19459;53.044;8.910;2023-11-19T15:06:56;11.00;99.90
33095;DHT22;19459;53.044;8.910;2023-11-19T15:09:22;11.00;99.90
33095;DHT22;19459;53.044;8.910;2023-11-19T15:11:48;11.00;99.90
33095;DHT22;19459;53.044;8.910;2023-11-19T15:14:14;10.90;99.90
33095;DHT22;19459;53.044;8.910;2023-11-19T15:16:42;10.90;99.90
33095;DHT22;19459;53.044;8.910;2023-11-19T15:19:08;10.90;99.90
33095;DHT22;19459;53.044;8.910;2023-11-19T15:21:34;10.90;99.90
33095;DHT22;19459;53.044;8.910;2023-11-19T15:24:01;10.90;99.90
33095;DHT22;19459;53.044;8.910;2023-11-19T15:26:30;10.90;99.90
33095;DHT22;19459;53.044;8.910;2023-11-19T15:28:56;10.90;99.90
33095;DHT22;19459;53.044;8.910;2023-11-19T15:31:23;10.80;99.90
33095;DHT22;19459;53.044;8.910;2023-11-19T15:33:48;10.80;99.90
33095;DHT22;19459;53.044;8.910;2023-11-19T15:36:18;10.80;99.90
33095;DHT22;19459;53.044;8.910;2023-11-19T15:38:44;10.80;99.90
33095;DHT22;19459;53.044;8.910;2023-11-19T15:41:10;10.80;99.90
33095;DHT22;19459;53.044;8.910;2023-11-19T15:43:36;10.70;99.90
33095;DHT22;19459;53.044;8.910;2023-11-19T15:46:06;10.70;99.90
33095;DHT22;19459;53.044;8.910;2023-11-19T15:48:32;10.70;99.90
33095;DHT22;19459;53.044;8.910;2023-11-19T15:50:58;10.70;99.90
33095;DHT22;19459;53.044;8.910;2023-11-19T15:53:24;10.70;99.90
33095;DHT22;19459;53.044;8.910;2023-11-19T15:55:50;10.70;99.90
33095;DHT22;19459;53.044;8.910;2023-11-19T15:58:18;10.80;99.90
33095;DHT22;19459;53.044;8.910;2023-11-19T16:00:45;10.70;99.90
33095;DHT22;19459;53.044;8.910;2023-11-19T16:03:13;10.70;99.90
33095;DHT22;19459;53.044;8.910;2023-11-19T16:05:39;10.70;99.90